sensor_id;sensor_type;location;lat;lon;timestamp;pressure;altitude;pressure_sealevel;temperature;humidity
79242;BME280;68670;48.720;9.118;2023-08-24T00:00:57;97063.22;;;19.90;67.53
79242;BME280;68670;48.720;9.118;2023-08-24T00:03:34;97074.34;;;19.90;67.65
79242;BME280;68670;48.720;9.118;2023-08-24T00:06:05;97071.03;;;19.88;67.78
79242;BME280;68670;48.720;9.118;2023-08-24T00:08:40;97073.06;;;19.83;68.42
79242;BME280;68670;48.720;9.118;2023-08-24T00:11:09;97065.78;;;19.87;67.46
79242;BME280;68670;48.720;9.118;2023-08-24T00:13:45;97072.41;;;19.91;67.64
79242;BME280;68670;48.720;9.118;2023-08-24T00:16:18;97060.16;;;19.92;67.58
79242;BME280;68670;48.720;9.118;2023-08-24T00:18:52;97062.41;;;19.90;67.42
79242;BME280;68670;48.720;9.118;2023-08-24T00:21:23;97073.16;;;19.96;66.87
79242;BME280;68670;48.720;9.118;2023-08-24T00:23:54;97059.19;;;20.01;66.64
79242;BME280;68670;48.720;9.118;2023-08-24T00:26:21;97054.09;;;20.08;66.05
79242;BME280;68670;48.720;9.118;2023-08-24T00:28:50;97047.69;;;20.08;67.32
79242;BME280;68670;48.720;9.118;2023-08-24T00:31:17;97054.81;;;19.95;68.24
79242;BME280;68670;48.720;9.118;2023-08-24T00:33:43;97050.63;;;19.79;68.30
79242;BME280;68670;48.720;9.118;2023-08-24T00:36:18;97047.44;;;19.67;68.57
79242;BME280;68670;48.720;9.118;2023-08-24T00:38:43;97048.00;;;19.64;69.48
79242;BME280;68670;48.720;9.118;2023-08-24T00:41:11;97037.66;;;19.69;70.14
79242;BME280;68670;48.720;9.118;2023-08-24T00:43:43;97031.81;;;19.71;69.01
79242;BME280;68670;48.720;9.118;2023-08-24T00:46:09;97036.66;;;19.60;69.54
79242;BME280;68670;48.720;9.118;2023-08-24T00:48:34;97027.91;;;19.48;69.65
79242;BME280;68670;48.720;9.118;2023-08-24T00:51:00;97025.56;;;19.36;69.78
79242;BME280;68670;48.720;9.118;2023-08-24T00:53:30;97037.00;;;19.06;71.09
79242;BME280;68670;48.720;9.118;2023-08-24T00:55:59;97037.94;;;18.96;71.62
79242;BME280;68670;48.720;9.118;2023-08-24T00:58:26;97041.84;;;18.95;71.51
79242;BME280;68670;48.720;9.118;2023-08-24T01:00:57;97030.81;;;18.85;71.24
79242;BME280;68670;48.720;9.118;2023-08-24T01:03:31;97023.25;;;18.67;72.14
79242;BME280;68670;48.720;9.118;2023-08-24T01:05:59;97020.81;;;18.60;73.01
79242;BME280;68670;48.720;9.118;2023-08-24T01:08:28;97034.66;;;18.60;73.40
79242;BME280;68670;48.720;9.118;2023-08-24T01:11:11;97029.13;;;18.60;73.23
79242;BME280;68670;48.720;9.118;2023-08-24T01:16:33;97030.19;;;18.64;72.87
79242;BME280;68670;48.720;9.118;2023-08-24T01:19:10;97030.13;;;18.74;72.45
79242;BME280;68670;48.720;9.118;2023-08-24T01:21:42;97029.41;;;18.88;71.72
79242;BME280;68670;48.720;9.118;2023-08-24T01:24:42;97021.75;;;18.79;72.58
79242;BME280;68670;48.720;9.118;2023-08-24T01:27:10;97018.09;;;18.84;72.97
79242;BME280;68670;48.720;9.118;2023-08-24T01:29:38;97011.94;;;18.87;72.92
79242;BME280;68670;48.720;9.118;2023-08-24T01:32:14;97018.91;;;18.85;73.00
79242;BME280;68670;48.720;9.118;2023-08-24T01:34:39;97018.19;;;18.74;72.97
79242;BME280;68670;48.720;9.118;2023-08-24T01:37:12;97020.44;;;18.72;72.73
79242;BME280;68670;48.720;9.118;2023-08-24T01:40:13;97016.25;;;18.74;72.29
79242;BME280;68670;48.720;9.118;2023-08-24T01:43:02;97014.38;;;18.65;72.87
79242;BME280;68670;48.720;9.118;2023-08-24T01:45:32;97015.78;;;18.62;73.01
79242;BME280;68670;48.720;9.118;2023-08-24T01:48:03;97011.94;;;18.53;73.67
79242;BME280;68670;48.720;9.118;2023-08-24T01:50:29;97007.31;;;18.49;74.09
79242;BME280;68670;48.720;9.118;2023-08-24T01:53:03;97009.19;;;18.53;74.49
79242;BME280;68670;48.720;9.118;2023-08-24T01:55:30;97004.16;;;18.55;73.84
79242;BME280;68670;48.720;9.118;2023-08-24T01:57:56;97003.94;;;18.52;73.65
79242;BME280;68670;48.720;9.118;2023-08-24T02:00:27;97002.59;;;18.49;73.49
79242;BME280;68670;48.720;9.118;2023-08-24T02:02:56;96993.06;;;18.55;73.43
79242;BME280;68670;48.720;9.118;2023-08-24T02:05:27;96988.88;;;18.63;74.28
79242;BME280;68670;48.720;9.118;2023-08-24T02:08:00;97005.78;;;18.66;74.57
79242;BME280;68670;48.720;9.118;2023-08-24T02:10:25;97006.06;;;18.65;73.92
79242;BME280;68670;48.720;9.118;2023-08-24T02:12:51;97007.34;;;18.77;73.43
79242;BME280;68670;48.720;9.118;2023-08-24T02:15:17;97012.69;;;18.69;73.64
79242;BME280;68670;48.720;9.118;2023-08-24T02:17:47;97012.19;;;18.57;73.83
79242;BME280;68670;48.720;9.118;2023-08-24T02:20:13;97004.56;;;18.43;74.48
79242;BME280;68670;48.720;9.118;2023-08-24T02:22:41;97004.44;;;18.25;74.71
79242;BME280;68670;48.720;9.118;2023-08-24T02:25:09;97010.56;;;18.22;75.46
79242;BME280;68670;48.720;9.118;2023-08-24T02:27:35;97016.69;;;18.19;75.33
79242;BME280;68670;48.720;9.118;2023-08-24T02:30:12;97006.66;;;18.23;75.36
79242;BME280;68670;48.720;9.118;2023-08-24T02:32:42;97004.34;;;18.35;75.46
79242;BME280;68670;48.720;9.118;2023-08-24T02:35:15;97002.69;;;18.34;76.21
79242;BME280;68670;48.720;9.118;2023-08-24T02:37:40;96997.16;;;18.34;75.08
79242;BME280;68670;48.720;9.118;2023-08-24T02:40:06;96998.81;;;18.35;75.20
79242;BME280;68670;48.720;9.118;2023-08-24T02:42:34;96999.75;;;18.20;76.08
79242;BME280;68670;48.720;9.118;2023-08-24T02:45:05;96990.78;;;18.33;75.40
79242;BME280;68670;48.720;9.118;2023-08-24T02:47:33;96996.56;;;18.37;75.76
79242;BME280;68670;48.720;9.118;2023-08-24T02:49:58;96998.97;;;18.49;75.51
79242;BME280;68670;48.720;9.118;2023-08-24T02:52:26;96998.16;;;18.48;75.68
79242;BME280;68670;48.720;9.118;2023-08-24T02:54:51;96988.63;;;18.54;74.46
79242;BME280;68670;48.720;9.118;2023-08-24T02:57:16;96983.91;;;18.60;74.14
79242;BME280;68670;48.720;9.118;2023-08-24T02:59:44;96988.03;;;18.62;74.66
79242;BME280;68670;48.720;9.118;2023-08-24T03:02:12;96988.59;;;18.64;75.38
79242;BME280;68670;48.720;9.118;2023-08-24T03:04:40;96990.00;;;18.62;75.07
79242;BME280;68670;48.720;9.118;2023-08-24T03:07:07;96980.84;;;18.61;75.72
79242;BME280;68670;48.720;9.118;2023-08-24T03:09:38;96983.16;;;18.49;77.24
79242;BME280;68670;48.720;9.118;2023-08-24T03:12:10;96997.78;;;18.60;74.10
79242;BME280;68670;48.720;9.118;2023-08-24T03:14:45;96986.31;;;18.71;73.25
79242;BME280;68670;48.720;9.118;2023-08-24T03:17:11;96987.47;;;18.65;74.37
79242;BME280;68670;48.720;9.118;2023-08-24T03:19:36;96976.94;;;18.62;74.67
79242;BME280;68670;48.720;9.118;2023-08-24T03:22:01;96972.59;;;18.51;74.80
79242;BME280;68670;48.720;9.118;2023-08-24T03:24:27;96969.19;;;18.30;76.09
79242;BME280;68670;48.720;9.118;2023-08-24T03:26:58;96960.31;;;18.28;76.11
79242;BME280;68670;48.720;9.118;2023-08-24T03:29:23;96967.03;;;18.22;77.14
79242;BME280;68670;48.720;9.118;2023-08-24T03:31:51;96980.00;;;18.27;76.61
79242;BME280;68670;48.720;9.118;2023-08-24T03:34:31;96973.56;;;18.36;76.48
79242;BME280;68670;48.720;9.118;2023-08-24T03:36:56;96977.53;;;18.25;77.22
79242;BME280;68670;48.720;9.118;2023-08-24T03:39:26;96967.84;;;18.23;77.20
79242;BME280;68670;48.720;9.118;2023-08-24T03:41:51;96967.84;;;18.23;77.12
79242;BME280;68670;48.720;9.118;2023-08-24T03:44:19;96965.16;;;18.18;77.37
79242;BME280;68670;48.720;9.118;2023-08-24T03:46:44;96954.69;;;18.04;78.21
79242;BME280;68670;48.720;9.118;2023-08-24T03:49:09;96962.72;;;18.06;77.93
79242;BME280;68670;48.720;9.118;2023-08-24T03:51:40;96955.28;;;18.01;78.33
79242;BME280;68670;48.720;9.118;2023-08-24T03:54:10;96952.97;;;18.13;77.66
79242;BME280;68670;48.720;9.118;2023-08-24T03:56:40;96949.00;;;18.20;77.36
79242;BME280;68670;48.720;9.118;2023-08-24T03:59:08;96946.25;;;18.20;77.44
79242;BME280;68670;48.720;9.118;2023-08-24T04:01:36;96942.97;;;18.18;77.68
79242;BME280;68670;48.720;9.118;2023-08-24T04:04:06;96931.94;;;18.07;78.01
79242;BME280;68670;48.720;9.118;2023-08-24T04:06:41;96938.06;;;18.04;78.41
79242;BME280;68670;48.720;9.118;2023-08-24T04:09:07;96936.91;;;18.10;78.87
79242;BME280;68670;48.720;9.118;2023-08-24T04:11:32;96929.03;;;18.23;78.28
79242;BME280;68670;48.720;9.118;2023-08-24T04:14:03;96930.41;;;18.25;77.90
79242;BME280;68670;48.720;9.118;2023-08-24T04:16:31;96923.97;;;18.30;78.51
79242;BME280;68670;48.720;9.118;2023-08-24T04:19:08;96932.84;;;18.32;77.63
79242;BME280;68670;48.720;9.118;2023-08-24T04:21:33;96929.53;;;18.30;77.56
79242;BME280;68670;48.720;9.118;2023-08-24T04:23:58;96930.34;;;18.30;77.97
79242;BME280;68670;48.720;9.118;2023-08-24T04:26:30;96936.72;;;18.31;78.28
79242;BME280;68670;48.720;9.118;2023-08-24T04:28:58;96924.56;;;18.27;78.34
79242;BME280;68670;48.720;9.118;2023-08-24T04:31:29;96922.31;;;18.29;78.93
79242;BME280;68670;48.720;9.118;2023-08-24T04:33:54;96923.94;;;18.35;78.26
79242;BME280;68670;48.720;9.118;2023-08-24T04:36:21;96912.06;;;18.29;78.44
79242;BME280;68670;48.720;9.118;2023-08-24T04:38:47;96914.53;;;18.31;78.91
79242;BME280;68670;48.720;9.118;2023-08-24T04:41:18;96913.38;;;18.37;78.49
79242;BME280;68670;48.720;9.118;2023-08-24T04:43:46;96909.50;;;18.38;79.70
79242;BME280;68670;48.720;9.118;2023-08-24T04:46:13;96913.34;;;18.42;78.84
79242;BME280;68670;48.720;9.118;2023-08-24T04:48:41;96918.84;;;18.47;78.77
79242;BME280;68670;48.720;9.118;2023-08-24T04:51:09;96898.88;;;18.45;77.34
79242;BME280;68670;48.720;9.118;2023-08-24T04:53:35;96914.69;;;18.44;77.41
79242;BME280;68670;48.720;9.118;2023-08-24T04:56:00;96918.88;;;18.42;78.54
79242;BME280;68670;48.720;9.118;2023-08-24T04:58:25;96918.00;;;18.46;78.85
79242;BME280;68670;48.720;9.118;2023-08-24T05:00:51;96914.94;;;18.48;78.58
79242;BME280;68670;48.720;9.118;2023-08-24T05:03:19;96922.16;;;18.49;80.32
79242;BME280;68670;48.720;9.118;2023-08-24T05:05:47;96918.75;;;18.52;79.21
79242;BME280;68670;48.720;9.118;2023-08-24T05:08:15;96918.72;;;18.57;78.00
79242;BME280;68670;48.720;9.118;2023-08-24T05:10:43;96909.84;;;18.60;77.98
79242;BME280;68670;48.720;9.118;2023-08-24T05:13:14;96913.44;;;18.61;77.97
79242;BME280;68670;48.720;9.118;2023-08-24T05:15:42;96903.16;;;18.61;79.75
79242;BME280;68670;48.720;9.118;2023-08-24T05:18:10;96898.69;;;18.65;79.04
79242;BME280;68670;48.720;9.118;2023-08-24T05:20:38;96891.44;;;18.69;77.62
79242;BME280;68670;48.720;9.118;2023-08-24T05:23:15;96894.69;;;18.76;77.42
79242;BME280;68670;48.720;9.118;2023-08-24T05:25:43;96894.09;;;18.79;77.93
79242;BME280;68670;48.720;9.118;2023-08-24T05:28:09;96889.59;;;18.84;78.62
79242;BME280;68670;48.720;9.118;2023-08-24T05:30:54;96896.66;;;18.95;78.03
79242;BME280;68670;48.720;9.118;2023-08-24T05:33:24;96890.81;;;18.96;77.58
79242;BME280;68670;48.720;9.118;2023-08-24T05:35:54;96883.19;;;19.07;76.16
79242;BME280;68670;48.720;9.118;2023-08-24T05:38:20;96881.53;;;19.06;75.97
79242;BME280;68670;48.720;9.118;2023-08-24T05:40:49;96876.22;;;19.09;77.52
79242;BME280;68670;48.720;9.118;2023-08-24T05:43:17;96872.09;;;19.07;77.60
79242;BME280;68670;48.720;9.118;2023-08-24T05:45:48;96867.91;;;19.09;76.86
79242;BME280;68670;48.720;9.118;2023-08-24T05:48:13;96873.38;;;19.15;76.89
79242;BME280;68670;48.720;9.118;2023-08-24T05:50:50;96872.41;;;19.24;77.43
79242;BME280;68670;48.720;9.118;2023-08-24T05:53:19;96871.78;;;19.27;77.10
79242;BME280;68670;48.720;9.118;2023-08-24T05:55:56;96878.88;;;19.38;76.46
79242;BME280;68670;48.720;9.118;2023-08-24T05:58:27;96876.03;;;19.43;76.01
79242;BME280;68670;48.720;9.118;2023-08-24T06:00:59;96876.41;;;19.56;76.70
79242;BME280;68670;48.720;9.118;2023-08-24T06:03:34;96869.34;;;19.63;76.77
79242;BME280;68670;48.720;9.118;2023-08-24T06:06:02;96872.81;;;19.74;76.87
79242;BME280;68670;48.720;9.118;2023-08-24T06:08:28;96880.53;;;19.77;75.03
79242;BME280;68670;48.720;9.118;2023-08-24T06:10:54;96879.94;;;19.80;74.79
79242;BME280;68670;48.720;9.118;2023-08-24T06:13:19;96882.00;;;19.88;75.08
79242;BME280;68670;48.720;9.118;2023-08-24T06:15:44;96880.72;;;19.99;73.79
79242;BME280;68670;48.720;9.118;2023-08-24T06:18:09;96885.16;;;20.00;73.07
79242;BME280;68670;48.720;9.118;2023-08-24T06:20:35;96876.72;;;20.05;71.67
79242;BME280;68670;48.720;9.118;2023-08-24T06:23:09;96885.59;;;20.07;72.50
79242;BME280;68670;48.720;9.118;2023-08-24T06:25:37;96888.06;;;20.09;71.10
79242;BME280;68670;48.720;9.118;2023-08-24T06:28:02;96879.44;;;20.10;70.85
79242;BME280;68670;48.720;9.118;2023-08-24T06:30:32;96883.94;;;20.06;72.89
79242;BME280;68670;48.720;9.118;2023-08-24T06:33:03;96892.81;;;20.08;74.27
79242;BME280;68670;48.720;9.118;2023-08-24T06:35:28;96888.69;;;20.06;73.83
79242;BME280;68670;48.720;9.118;2023-08-24T06:37:56;96889.72;;;20.10;73.29
79242;BME280;68670;48.720;9.118;2023-08-24T06:40:26;96889.94;;;20.13;73.20
79242;BME280;68670;48.720;9.118;2023-08-24T06:42:54;96898.78;;;20.16;73.38
79242;BME280;68670;48.720;9.118;2023-08-24T06:45:20;96906.50;;;20.19;75.42
79242;BME280;68670;48.720;9.118;2023-08-24T06:47:54;96912.00;;;20.24;72.89
79242;BME280;68670;48.720;9.118;2023-08-24T06:50:24;96928.06;;;20.27;70.90
79242;BME280;68670;48.720;9.118;2023-08-24T06:52:50;96931.59;;;20.32;70.52
79242;BME280;68670;48.720;9.118;2023-08-24T06:55:18;96951.47;;;20.44;68.88
79242;BME280;68670;48.720;9.118;2023-08-24T06:57:48;96958.47;;;20.56;68.61
79242;BME280;68670;48.720;9.118;2023-08-24T07:00:16;96959.75;;;20.63;68.93
79242;BME280;68670;48.720;9.118;2023-08-24T07:02:45;96962.66;;;20.72;67.91
79242;BME280;68670;48.720;9.118;2023-08-24T07:05:19;96961.59;;;20.82;68.04
79242;BME280;68670;48.720;9.118;2023-08-24T07:07:50;96954.72;;;20.93;67.22
79242;BME280;68670;48.720;9.118;2023-08-24T07:10:15;96938.97;;;21.02;66.84
79242;BME280;68670;48.720;9.118;2023-08-24T07:12:46;96933.81;;;21.09;65.33
79242;BME280;68670;48.720;9.118;2023-08-24T07:15:17;96929.75;;;21.15;65.90
79242;BME280;68670;48.720;9.118;2023-08-24T07:17:50;96927.41;;;21.22;64.92
79242;BME280;68670;48.720;9.118;2023-08-24T07:20:15;96915.66;;;21.25;63.97
79242;BME280;68670;48.720;9.118;2023-08-24T07:22:44;96909.97;;;21.30;67.82
79242;BME280;68670;48.720;9.118;2023-08-24T07:25:09;96903.28;;;21.31;67.11
79242;BME280;68670;48.720;9.118;2023-08-24T07:27:37;96895.22;;;21.43;69.33
79242;BME280;68670;48.720;9.118;2023-08-24T07:30:08;96895.59;;;21.51;68.87
79242;BME280;68670;48.720;9.118;2023-08-24T07:32:36;96888.56;;;21.53;69.35
79242;BME280;68670;48.720;9.118;2023-08-24T07:35:02;96891.84;;;21.55;66.68
79242;BME280;68670;48.720;9.118;2023-08-24T07:37:27;96902.16;;;21.68;67.57
79242;BME280;68670;48.720;9.118;2023-08-24T07:39:53;96896.53;;;21.82;67.21
79242;BME280;68670;48.720;9.118;2023-08-24T07:42:24;96899.19;;;21.87;63.85
79242;BME280;68670;48.720;9.118;2023-08-24T07:44:54;96890.06;;;21.95;63.35
79242;BME280;68670;48.720;9.118;2023-08-24T07:47:25;96900.56;;;22.12;65.16
79242;BME280;68670;48.720;9.118;2023-08-24T07:49:52;96904.94;;;22.27;62.72
79242;BME280;68670;48.720;9.118;2023-08-24T07:52:20;96904.28;;;22.52;62.70
79242;BME280;68670;48.720;9.118;2023-08-24T07:54:52;96900.28;;;22.75;63.55
79242;BME280;68670;48.720;9.118;2023-08-24T07:57:20;96895.44;;;23.29;63.22
79242;BME280;68670;48.720;9.118;2023-08-24T07:59:49;96896.09;;;23.43;59.14
79242;BME280;68670;48.720;9.118;2023-08-24T08:02:16;96890.06;;;24.10;60.53
79242;BME280;68670;48.720;9.118;2023-08-24T08:04:47;96905.38;;;24.56;57.00
79242;BME280;68670;48.720;9.118;2023-08-24T08:07:13;96909.84;;;25.04;57.46
79242;BME280;68670;48.720;9.118;2023-08-24T08:09:38;96909.56;;;25.56;55.07
79242;BME280;68670;48.720;9.118;2023-08-24T08:12:04;96907.38;;;26.11;53.10
79242;BME280;68670;48.720;9.118;2023-08-24T08:14:29;96906.75;;;26.48;51.06
79242;BME280;68670;48.720;9.118;2023-08-24T08:17:00;96902.16;;;26.88;49.17
79242;BME280;68670;48.720;9.118;2023-08-24T08:19:27;96904.66;;;27.02;50.15
79242;BME280;68670;48.720;9.118;2023-08-24T08:21:58;96900.16;;;27.58;48.18
79242;BME280;68670;48.720;9.118;2023-08-24T08:24:24;96896.06;;;27.96;46.07
79242;BME280;68670;48.720;9.118;2023-08-24T08:26:49;96893.94;;;28.45;44.95
79242;BME280;68670;48.720;9.118;2023-08-24T08:29:35;96902.16;;;28.94;44.18
79242;BME280;68670;48.720;9.118;2023-08-24T08:32:03;96886.06;;;29.10;43.79
79242;BME280;68670;48.720;9.118;2023-08-24T08:34:33;96895.00;;;29.44;43.76
79242;BME280;68670;48.720;9.118;2023-08-24T08:37:07;96890.94;;;29.76;43.24
79242;BME280;68670;48.720;9.118;2023-08-24T08:39:36;96892.50;;;29.58;44.19
79242;BME280;68670;48.720;9.118;2023-08-24T08:42:03;96884.50;;;29.60;42.41
79242;BME280;68670;48.720;9.118;2023-08-24T08:44:34;96886.00;;;29.54;42.27
79242;BME280;68670;48.720;9.118;2023-08-24T08:47:03;96885.13;;;29.69;42.17
79242;BME280;68670;48.720;9.118;2023-08-24T08:49:32;96882.59;;;29.32;42.73
79242;BME280;68670;48.720;9.118;2023-08-24T08:55:39;96888.56;;;28.40;45.09
79242;BME280;68670;48.720;9.118;2023-08-24T08:58:04;96883.25;;;28.10;47.04
79242;BME280;68670;48.720;9.118;2023-08-24T09:00:34;96887.31;;;27.85;46.48
79242;BME280;68670;48.720;9.118;2023-08-24T09:03:12;96882.41;;;27.82;46.55
79242;BME280;68670;48.720;9.118;2023-08-24T09:05:38;96878.66;;;27.66;46.23
79242;BME280;68670;48.720;9.118;2023-08-24T09:08:05;96881.72;;;27.36;47.27
79242;BME280;68670;48.720;9.118;2023-08-24T09:10:36;96871.41;;;27.40;48.31
79242;BME280;68670;48.720;9.118;2023-08-24T09:13:04;96871.16;;;27.70;47.82
79242;BME280;68670;48.720;9.118;2023-08-24T09:15:34;96863.38;;;27.91;47.90
79242;BME280;68670;48.720;9.118;2023-08-24T09:18:00;96866.25;;;28.07;46.07
79242;BME280;68670;48.720;9.118;2023-08-24T09:20:29;96858.94;;;27.90;46.01
79242;BME280;68670;48.720;9.118;2023-08-24T09:23:00;96850.50;;;27.78;47.33
79242;BME280;68670;48.720;9.118;2023-08-24T09:25:25;96843.41;;;27.96;46.66
79242;BME280;68670;48.720;9.118;2023-08-24T09:28:00;96835.22;;;28.47;44.92
79242;BME280;68670;48.720;9.118;2023-08-24T09:30:34;96832.84;;;29.08;44.09
79242;BME280;68670;48.720;9.118;2023-08-24T09:33:10;96828.38;;;29.74;43.17
79242;BME280;68670;48.720;9.118;2023-08-24T09:35:36;96828.56;;;30.00;42.22
79242;BME280;68670;48.720;9.118;2023-08-24T09:38:35;96827.03;;;30.84;40.96
79242;BME280;68670;48.720;9.118;2023-08-24T09:41:01;96823.59;;;31.20;38.92
79242;BME280;68670;48.720;9.118;2023-08-24T09:43:30;96822.16;;;31.56;37.92
79242;BME280;68670;48.720;9.118;2023-08-24T09:45:56;96820.16;;;32.13;36.78
79242;BME280;68670;48.720;9.118;2023-08-24T09:48:30;96812.53;;;32.54;36.06
79242;BME280;68670;48.720;9.118;2023-08-24T09:51:09;96811.94;;;32.71;35.48
79242;BME280;68670;48.720;9.118;2023-08-24T09:53:37;96805.19;;;32.87;35.25
79242;BME280;68670;48.720;9.118;2023-08-24T09:56:08;96790.88;;;33.13;35.80
79242;BME280;68670;48.720;9.118;2023-08-24T09:58:34;96778.72;;;33.75;33.96
79242;BME280;68670;48.720;9.118;2023-08-24T10:01:03;96776.19;;;33.59;33.53
79242;BME280;68670;48.720;9.118;2023-08-24T10:03:35;96767.81;;;33.25;34.18
79242;BME280;68670;48.720;9.118;2023-08-24T10:06:13;96757.72;;;33.93;34.36
79242;BME280;68670;48.720;9.118;2023-08-24T10:08:43;96757.72;;;33.93;34.05
79242;BME280;68670;48.720;9.118;2023-08-24T10:11:22;96750.22;;;34.36;33.47
79242;BME280;68670;48.720;9.118;2023-08-24T10:14:12;96733.84;;;34.16;34.65
79242;BME280;68670;48.720;9.118;2023-08-24T10:16:42;96724.69;;;34.90;32.94
79242;BME280;68670;48.720;9.118;2023-08-24T10:19:13;96723.06;;;35.39;33.10
79242;BME280;68670;48.720;9.118;2023-08-24T10:21:39;96719.78;;;34.73;32.92
79242;BME280;68670;48.720;9.118;2023-08-24T10:24:08;96719.78;;;35.22;32.33
79242;BME280;68670;48.720;9.118;2023-08-24T10:26:39;96714.53;;;35.03;34.23
79242;BME280;68670;48.720;9.118;2023-08-24T10:29:06;96701.34;;;35.84;32.17
79242;BME280;68670;48.720;9.118;2023-08-24T10:31:43;96703.69;;;36.07;32.15
79242;BME280;68670;48.720;9.118;2023-08-24T10:34:14;96709.75;;;36.12;30.96
79242;BME280;68670;48.720;9.118;2023-08-24T10:36:40;96721.38;;;35.52;31.32
79242;BME280;68670;48.720;9.118;2023-08-24T10:39:10;96706.28;;;35.73;32.65
79242;BME280;68670;48.720;9.118;2023-08-24T10:41:52;96708.69;;;35.74;33.35
79242;BME280;68670;48.720;9.118;2023-08-24T10:44:44;96696.53;;;35.63;32.20
79242;BME280;68670;48.720;9.118;2023-08-24T10:47:14;96691.56;;;35.74;32.38
79242;BME280;68670;48.720;9.118;2023-08-24T10:49:56;96699.38;;;35.59;33.66
79242;BME280;68670;48.720;9.118;2023-08-24T10:52:37;96689.28;;;35.37;33.38
79242;BME280;68670;48.720;9.118;2023-08-24T10:57:55;96683.59;;;35.30;33.44
79242;BME280;68670;48.720;9.118;2023-08-24T11:00:28;96687.16;;;35.59;33.28
79242;BME280;68670;48.720;9.118;2023-08-24T11:02:54;96675.38;;;35.50;33.27
79242;BME280;68670;48.720;9.118;2023-08-24T11:05:34;96667.56;;;35.75;33.52
79242;BME280;68670;48.720;9.118;2023-08-24T11:08:03;96665.91;;;35.85;33.75
79242;BME280;68670;48.720;9.118;2023-08-24T11:15:41;96665.72;;;36.24;32.52
79242;BME280;68670;48.720;9.118;2023-08-24T11:18:28;96648.59;;;36.24;32.20
79242;BME280;68670;48.720;9.118;2023-08-24T11:21:06;96657.31;;;36.61;31.72
79242;BME280;68670;48.720;9.118;2023-08-24T11:23:39;96654.84;;;36.63;32.13
79242;BME280;68670;48.720;9.118;2023-08-24T11:26:04;96655.25;;;36.65;31.76
79242;BME280;68670;48.720;9.118;2023-08-24T11:28:37;96642.22;;;36.64;31.61
79242;BME280;68670;48.720;9.118;2023-08-24T11:31:09;96628.53;;;36.90;32.27
79242;BME280;68670;48.720;9.118;2023-08-24T11:33:36;96624.53;;;36.84;33.75
79242;BME280;68670;48.720;9.118;2023-08-24T11:36:14;96624.91;;;37.30;30.97
79242;BME280;68670;48.720;9.118;2023-08-24T11:38:41;96628.66;;;37.58;30.83
79242;BME280;68670;48.720;9.118;2023-08-24T11:41:28;96622.16;;;37.54;30.32
79242;BME280;68670;48.720;9.118;2023-08-24T11:44:00;96605.88;;;37.51;31.21
79242;BME280;68670;48.720;9.118;2023-08-24T11:46:28;96622.53;;;37.18;31.75
79242;BME280;68670;48.720;9.118;2023-08-24T11:48:58;96608.03;;;37.74;31.18
79242;BME280;68670;48.720;9.118;2023-08-24T11:51:26;96609.63;;;37.78;30.61
79242;BME280;68670;48.720;9.118;2023-08-24T11:53:51;96613.88;;;37.63;30.85
79242;BME280;68670;48.720;9.118;2023-08-24T11:56:16;96605.06;;;37.50;30.63
79242;BME280;68670;48.720;9.118;2023-08-24T11:58:49;96604.06;;;37.64;31.34
79242;BME280;68670;48.720;9.118;2023-08-24T12:01:15;96599.97;;;37.69;30.53
79242;BME280;68670;48.720;9.118;2023-08-24T12:03:43;96612.13;;;37.01;31.32
79242;BME280;68670;48.720;9.118;2023-08-24T12:06:15;96606.97;;;36.85;32.86
79242;BME280;68670;48.720;9.118;2023-08-24T12:08:45;96607.03;;;36.23;33.06
79242;BME280;68670;48.720;9.118;2023-08-24T12:11:23;96598.31;;;35.85;33.47
79242;BME280;68670;48.720;9.118;2023-08-24T12:13:54;96600.97;;;35.26;34.72
79242;BME280;68670;48.720;9.118;2023-08-24T12:16:22;96599.16;;;35.75;34.97
79242;BME280;68670;48.720;9.118;2023-08-24T12:19:02;96586.03;;;35.95;33.76
79242;BME280;68670;48.720;9.118;2023-08-24T12:21:28;96580.00;;;35.86;35.13
79242;BME280;68670;48.720;9.118;2023-08-24T12:24:07;96572.03;;;36.19;33.02
79242;BME280;68670;48.720;9.118;2023-08-24T12:26:35;96567.03;;;36.82;33.40
79242;BME280;68670;48.720;9.118;2023-08-24T12:29:08;96553.63;;;36.72;32.43
79242;BME280;68670;48.720;9.118;2023-08-24T12:31:34;96542.44;;;37.32;31.71
79242;BME280;68670;48.720;9.118;2023-08-24T12:34:06;96535.31;;;37.44;32.90
79242;BME280;68670;48.720;9.118;2023-08-24T12:36:37;96529.50;;;37.17;31.11
79242;BME280;68670;48.720;9.118;2023-08-24T12:39:18;96531.47;;;37.27;30.73
79242;BME280;68670;48.720;9.118;2023-08-24T12:41:44;96524.84;;;37.64;30.94
79242;BME280;68670;48.720;9.118;2023-08-24T12:44:11;96505.84;;;37.20;31.85
79242;BME280;68670;48.720;9.118;2023-08-24T12:46:37;96505.78;;;37.24;32.04
79242;BME280;68670;48.720;9.118;2023-08-24T12:49:13;96507.97;;;37.09;31.19
79242;BME280;68670;48.720;9.118;2023-08-24T12:51:38;96496.56;;;36.72;31.30
79242;BME280;68670;48.720;9.118;2023-08-24T12:54:07;96503.06;;;36.76;31.71
79242;BME280;68670;48.720;9.118;2023-08-24T12:56:39;96496.97;;;37.08;32.05
79242;BME280;68670;48.720;9.118;2023-08-24T12:59:08;96493.31;;;37.41;30.65
79242;BME280;68670;48.720;9.118;2023-08-24T13:01:33;96490.25;;;37.86;29.38
79242;BME280;68670;48.720;9.118;2023-08-24T13:03:58;96489.81;;;38.11;31.01
79242;BME280;68670;48.720;9.118;2023-08-24T13:06:26;96475.31;;;38.48;30.38
79242;BME280;68670;48.720;9.118;2023-08-24T13:08:54;96471.38;;;38.39;27.42
79242;BME280;68670;48.720;9.118;2023-08-24T13:11:31;96472.59;;;38.64;27.76
79242;BME280;68670;48.720;9.118;2023-08-24T13:13:59;96471.50;;;38.78;26.73
79242;BME280;68670;48.720;9.118;2023-08-24T13:16:25;96479.94;;;38.66;26.82
79242;BME280;68670;48.720;9.118;2023-08-24T13:18:53;96477.63;;;38.57;26.75
79242;BME280;68670;48.720;9.118;2023-08-24T13:21:28;96472.28;;;38.59;26.32
79242;BME280;68670;48.720;9.118;2023-08-24T13:24:02;96475.31;;;38.48;26.86
79242;BME280;68670;48.720;9.118;2023-08-24T13:26:32;96473.47;;;38.11;26.81
79242;BME280;68670;48.720;9.118;2023-08-24T13:29:00;96462.16;;;38.04;28.20